Surface observations / Quebec / CYHU

Quebec | Canada | USA | France | UK | Europe | Elsewhere

Display: Info & Location for CYHU | Help decoding METAR

YHU SAINT-HUBERT ARPT QB CN
Raw surface observations for station CYHU
CYHU 160500Z AUTO 29018KT 9SM BKN031 BKN035 OVC150 M04/M09 A2993 RMK MAX WND 29026KT AT 0406Z PRESRR SLP136=
CYHU 160352Z AUTO 28013G22KT 9SM BKN026 BKN100 OVC120 M04/M08 A2993 RMK MAX WND 28023KT AT 0331Z PRESRR SLP134=
CYHU 160349Z AUTO 27018KT 9SM BKN024 BKN100 OVC120 M04/M08 A2993 RMK MAX WND 28023KT AT 0331Z PRESRR SLP134=
CYHU 160348Z AUTO 27018KT 9SM FEW019 BKN027 BKN100 OVC120 M04/M08 A2993 RMK MAX WND 28023KT AT 0331Z PRESRR SLP134=
CYHU 160347Z AUTO 27017KT 9SM FEW013 BKN024 BKN100 OVC120 M04/M07 A2993 RMK MAX WND 28023KT AT 0331Z PRESRR SLP135=
CYHU 160336Z AUTO 28015G23KT 9SM -SN FEW009 SCT015 OVC100 M04/M07 A2992 RMK MAX WND 28023KT AT 0331Z PRESRR SLP131=
CYHU 160335Z AUTO 28016G23KT 9SM -SN SCT015 OVC100 M04/M07 A2991 RMK MAX WND 28023KT AT 0331Z PRESRR SLP130=
CYHU 160331Z AUTO 28019KT 7SM -SN FEW010 BKN015 OVC095 M04/M07 A2990 RMK MAX WND 28023KT AT 0331Z PRESRR SLP124=
CYHU 160327Z AUTO 28013G21KT 3SM -SN FEW010 BKN015 OVC095 M04/M06 A2988 RMK MAX WND 27022KT AT 0316Z PRESRR SLP120=
CYHU 160324Z AUTO 28015G22KT 2SM -SN FEW010 BKN013 OVC095 M04/M06 A2988 RMK MAX WND 27022KT AT 0316Z PRESRR SLP120=
CYHU 160320Z AUTO 27012G22KT 1 1/4SM -SN FEW008 OVC013 M04/M05 A2989 RMK MAX WND 27022KT AT 0316Z PRESRR SLP123=
CYHU 160300Z AUTO 28013G19KT 3/4SM R24R/2600V4000FT/ -SN VV010 M04/M05 A2988 RMK MAX WND 28025KT AT 0240Z PRESRR SLP120=
CYHU 160244Z AUTO 29017G25KT 1 3/4SM -SN BKN024 OVC070 M03/M06 A2988 RMK MAX WND 28025KT AT 0240Z PRESRR SLP119=
CYHU 160243Z AUTO 29019G25KT 1 3/4SM -SN SCT022 BKN027 OVC070 M03/M06 A2988 RMK MAX WND 28025KT AT 0240Z PRESRR SLP119=
CYHU 160242Z AUTO 28020KT 2 1/4SM -SN SCT022 BKN027 OVC070 M03/M06 A2988 RMK MAX WND 28025KT AT 0240Z PRESRR SLP119=
CYHU 160225Z AUTO 29017KT 9SM -SN FEW022 SCT032 OVC060 M03/M07 A2986 RMK MAX WND 29024KT AT 0209Z SLP112=
CYHU 160223Z AUTO 29016G21KT 9SM FEW022 BKN055 OVC068 M03/M07 A2986 RMK MAX WND 29024KT AT 0209Z SLP111=
CYHU 160208Z AUTO 29017KT 9SM -SN SCT024 BKN045 OVC065 M03/M06 A2985 RMK MAX WND 29024KT AT 0208Z SLP110=
CYHU 160200Z AUTO 29017KT 9SM -SN BKN024 BKN050 OVC060 M03/M06 A2985 RMK MAX WND 28026KT AT 0141Z PRESRR SLP110=
CYHU 160100Z AUTO 27021G28KT 9SM -SN SCT018 OVC023 M02/M05 A2982 RMK MAX WND 27028KT AT 0059Z PRESRR SLP098=
CYHU 160050Z AUTO 28019G25KT 6SM -SN BKN018 OVC025 M02/M05 A2978 RMK MAX WND 25028KT AT 0019Z PRESRR SLP086=
CYHU 160042Z AUTO 26020KT 3SM -SN BKN018 OVC025 M02/M04 A2979 RMK MAX WND 25028KT AT 0019Z PRESFR SLP088=
CYHU 160035Z AUTO 27019G25KT 2 1/2SM -SN OVC018 M02/M04 A2977 RMK MAX WND 25028KT AT 0019Z PRESFR SLP083=
CYHU 160018Z AUTO 25022KT 5SM -SN BKN020 OVC031 M01/M04 A2980 RMK MAX WND 25026KT AT 0014Z PRESRR SLP090=
CYHU 160001Z AUTO 26018G23KT 7SM -SN BKN020 OVC040 M01/M04 A2975 RMK SLP074=
CYHU 152336Z AUTO 26014G22KT 6SM -SN FEW016 SCT022 OVC032 M01/M03 A2974 RMK MAX WND 25024KT AT 2314Z PRESRR SLP070=
CYHU 152332Z AUTO 25014G23KT 3SM -SN FEW016 SCT022 OVC028 M01/M03 A2974 RMK MAX WND 25024KT AT 2314Z PRESRR SLP070=
CYHU 152331Z AUTO 26015G23KT 2 1/2SM -SN FEW016 SCT022 OVC028 M01/M03 A2974 RMK MAX WND 25024KT AT 2314Z PRESRR SLP071=
CYHU 152329Z AUTO 25018KT 2SM -SN FEW016 OVC024 M01/M03 A2974 RMK MAX WND 25024KT AT 2314Z PRESRR SLP070=
CYHU 152324Z AUTO 25018G23KT 1 3/4SM -SN FEW016 OVC024 M01/M02 A2974 RMK MAX WND 25024KT AT 2314Z PRESRR SLP070=
CYHU 152323Z AUTO 25017G24KT 1 3/4SM -SN FEW016 OVC026 M01/M02 A2974 RMK MAX WND 25024KT AT 2314Z PRESRR SLP070=
CYHU 152318Z AUTO 25018G24KT 2 1/2SM -SN SCT016 SCT021 OVC030 M01/M03 A2973 RMK MAX WND 25024KT AT 2314Z PRESRR SLP067=
CYHU 152314Z AUTO 25020KT 5SM -SN SCT018 OVC034 M00/M03 A2972 RMK MAX WND 25024KT AT 2314Z PRESRR SLP063=
CYHU 152301Z AUTO 27020G26KT 6SM -SN SCT018 BKN022 OVC037 M00/M03 A2971 RMK SLP060=
CYHU 152245Z AUTO 26015G23KT 5SM -SN BKN016 BKN021 OVC033 00/M02 A2969 RMK ICG MAX WND 25023KT AT 2236Z PRESRR SLP056=
CYHU 152223Z AUTO 26015G23KT 6SM -SN OVC012 00/M01 A2968 RMK ICG MAX WND 25023KT AT 2220Z PRESRR SLP050=
CYHU 152222Z AUTO 25017G23KT 5SM -SN OVC012 00/M01 A2967 RMK ICG MAX WND 25023KT AT 2220Z PRESRR SLP049=
CYHU 152214Z AUTO 26011G19KT 3SM -SN OVC012 00/M01 A2966 RMK ICG MAX WND 26019KT AT 2206Z PRESRR SLP045=
CYHU 152212Z AUTO 26011G19KT 3SM -SN BKN009 OVC014 00/M01 A2966 RMK ICG MAX WND 26019KT AT 2206Z PRESRR SLP045=
CYHU 152209Z AUTO 26013G19KT 3SM -SN OVC011 00/M01 A2966 RMK ICG MAX WND 26019KT AT 2206Z SLP044=
CYHU 152208Z AUTO 27015KT 2 1/2SM -SN OVC011 00/M01 A2966 RMK ICG MAX WND 26019KT AT 2206Z SLP044=
CYHU 152207Z AUTO 27014KT 2 1/2SM -SN BKN009 OVC014 00/M01 A2966 RMK ICG MAX WND 26019KT AT 2206Z SLP043=
CYHU 152200Z AUTO 25014G20KT 2 1/4SM -SN BKN011 OVC017 00/M01 A2965 RMK VIS VRB 1 3/4-2 1/2 ICG MAX WND 25025KT AT 2119Z PRESRR PCPN 0.5MM PAST HR SLP042=
CYHU 152159Z AUTO 25014G20KT 2SM -SN BKN011 OVC017 00/M01 A2965 RMK VIS VRB 1 3/4-2 1/2 ICG MAX WND 25025KT AT 2119Z PRESRR PCPN 0.5MM PAST HR SLP042=
CYHU 152158Z AUTO 26013G20KT 2SM -SN BKN009 OVC015 00/M01 A2965 RMK VIS VRB 1 3/4-2 1/2 ICG MAX WND 25025KT AT 2119Z PRESRR PCPN 0.5MM PAST HR SLP041=
CYHU 152157Z AUTO 26012G20KT 2SM -SN OVC011 00/M01 A2965 RMK VIS VRB 1 3/4-2 1/2 ICG MAX WND 25025KT AT 2119Z PRESRR PCPN 0.5MM PAST HR SLP040=
CYHU 152156Z AUTO 26012G20KT 2SM -SN BKN009 OVC015 00/M01 A2965 RMK VIS VRB 1 3/4-2 1/2 ICG MAX WND 25025KT AT 2119Z PRESRR PCPN 0.5MM PAST HR SLP040=
CYHU 152155Z AUTO 26014G20KT 2SM -SN OVC011 00/M01 A2964 RMK VIS VRB 1 3/4-2 1/2 ICG MAX WND 25025KT AT 2119Z PRESRR PCPN 0.5MM PAST HR SLP038=
CYHU 152154Z AUTO 26016KT 2SM -SN BKN009 OVC015 00/M01 A2964 RMK VIS VRB 1 3/4-2 1/2 ICG MAX WND 25025KT AT 2119Z PRESRR PCPN 0.5MM PAST HR SLP039=
CYHU 152148Z AUTO 25014KT 2 1/4SM -SN BKN009 OVC015 01/M01 A2964 RMK MAX WND 25025KT AT 2119Z PRESRR PCPN 0.5MM PAST HR SLP039=
CYHU 152146Z AUTO 26014KT 3SM -SN BKN009 OVC015 01/M01 A2964 RMK MAX WND 25025KT AT 2119Z PRESRR PCPN 0.5MM PAST HR SLP039=
CYHU 152138Z AUTO 25014G24KT 3SM -SN FEW007 OVC015 01/M01 A2964 RMK MAX WND 25025KT AT 2119Z PRESRR PCPN 0.5MM PAST HR SLP038=
CYHU 152129Z AUTO 26016G24KT 5SM -SN OVC015 01/M00 A2964 RMK MAX WND 25025KT AT 2119Z PRESRR SLP036=
CYHU 152123Z AUTO 26019G25KT 9SM -SN OVC015 02/M00 A2963 RMK MAX WND 25025KT AT 2119Z PRESRR SLP033=
CYHU 152118Z AUTO 26014G24KT 9SM -SNRA OVC015 02/00 A2963 RMK MAX WND 25024KT AT 2109Z PRESRR SLP035=
CYHU 152100Z AUTO 25016G23KT 9SM -RA OVC015 02/00 A2960 RMK MAX WND 25028KT AT 2010Z PRESRR SLP025=
CYHU 152000Z AUTO 26021G26KT 9SM -RA OVC013 04/02 A2956 RMK MAX WND 26026KT AT 1959Z PRESRR PCPN 1.5MM PAST HR SLP010=
CYHU 151900Z AUTO 27021G28KT 8SM -RA FEW009 BKN013 OVC065 05/03 A2949 RMK MAX WND 25028KT AT 1806Z PRESRR PCPN 2.8MM PAST HR SLP987=
CYHU 151853Z AUTO 26021G28KT 9SM -RA SCT009 BKN013 OVC065 05/03 A2949 RMK MAX WND 25028KT AT 1806Z PRESRR PCPN 2.5MM PAST HR SLP987=
CYHU 151844Z AUTO 25018G24KT 6SM -RA BR OVC010 05/04 A2950 RMK MAX WND 25028KT AT 1806Z PRESRR PCPN 2.0MM PAST HR SLP989=
CYHU 151841Z AUTO 26020KT 5SM -RA BR OVC010 05/04 A2949 RMK MAX WND 25028KT AT 1806Z PRESRR PCPN 2.0MM PAST HR SLP987=
CYHU 151840Z AUTO 25020KT 5SM -RA BR BKN008 OVC012 05/04 A2949 RMK MAX WND 25028KT AT 1806Z PRESRR PCPN 2.0MM PAST HR SLP988=
CYHU 151827Z AUTO 25020G26KT 4SM -RA BR OVC010 05/04 A2949 RMK MAX WND 25028KT AT 1806Z PRESRR PCPN 1.2MM PAST HR SLP987=
CYHU 151810Z AUTO 25021G28KT 5SM -RA BR OVC008 06/05 A2948 RMK MAX WND 25028KT AT 1806Z PRESRR PCPN 0.5MM PAST HR SLP984=
CYHU 151800Z AUTO 24019G25KT 6SM -RA BR BKN008 OVC050 06/05 A2947 RMK MAX WND 24028KT AT 1706Z PRESRR PCPN 1.5MM PAST HR SLP981=
CYHU 151748Z AUTO 25018KT 8SM -RA BKN008 OVC048 07/05 A2945 RMK MAX WND 24028KT AT 1706Z PRESRR PCPN 1.0MM PAST HR SLP975=
CYHU 151732Z AUTO 24019G24KT 9SM -RA FEW008 OVC046 07/06 A2945 RMK MAX WND 24028KT AT 1706Z PRESRR PCPN 0.8MM PAST HR SLP975=
CYHU 151700Z AUTO 24018G24KT 7SM -RA OVC036 08/07 A2945 RMK MAX WND 24024KT AT 1700Z PRESRR PCPN 2.0MM PAST HR SLP972=
CYHU 151617Z AUTO 27014G20KT 8SM -RA SCT017 OVC025 12/10 A2941 RMK MAX WND 25024KT AT 1602Z PRESRR SLP960 DENSITY ALT 200FT=
CYHU 151500Z AUTO 17021G28KT 9SM -RA BKN060 BKN077 OVC100 17/14 A2939 RMK MAX WND 19030KT AT 1426Z SLP951 DENSITY ALT 900FT=
CYHU 151434Z AUTO 18017G30KT 9SM -RA OVC060 17/13 A2939 RMK MAX WND 19030KT AT 1426Z SLP952 DENSITY ALT 900FT=
CYHU 151411Z AUTO 18020G30KT 9SM BKN060 OVC078 17/13 A2939 RMK MAX WND 18030KT AT 1411Z SLP953 DENSITY ALT 900FT=
CYHU 151400Z AUTO 18019G30KT 9SM -RA OVC075 16/13 A2940 RMK MAX WND 17034KT AT 1335Z PRESFR SLP957 DENSITY ALT 800FT=
CYHU 151300Z AUTO 17019G28KT 9SM BKN060 BKN076 OVC094 16/13 A2945 RMK MAX WND 19031KT AT 1219Z PRESFR SLP971 DENSITY ALT 800FT=
CYHU 151125Z AUTO 17016G22KT 9SM OVC046 15/13 A2950 RMK MAX WND 17022KT AT 1122Z PRESFR SLP989 DENSITY ALT 500FT=
CYHU 151100Z AUTO 17013G20KT 9SM -RA BKN040 OVC050 14/13 A2952 RMK MAX WND 18022KT AT 1100Z PRESFR PCPN 0.5MM PAST HR SLP995 DENSITY ALT 500FT=
CYHU 151032Z AUTO 18011G16KT 9SM -RA BKN041 OVC050 14/13 A2954 RMK MAX WND 18019KT AT 1014Z SLP002 DENSITY ALT 400FT=
CYHU 151000Z AUTO 18010KT 9SM FEW010 OVC039 14/13 A2955 RMK PRESFR SLP005 DENSITY ALT 400FT=
CYHU 150922Z AUTO VRB03KT 9SM SCT022 BKN028 OVC037 14/13 A2956 RMK PRESFR SLP010 DENSITY ALT 400FT=
CYHU 150915Z AUTO 14008KT 9SM BKN022 BKN028 OVC037 14/13 A2956 RMK PRESFR SLP009 DENSITY ALT 300FT=
CYHU 150914Z AUTO 13008KT 9SM SCT022 BKN026 OVC037 14/13 A2956 RMK PRESFR SLP008 DENSITY ALT 400FT=
CYHU 150903Z AUTO 17006KT 6SM -RA BR BKN022 OVC029 14/13 A2957 RMK SLP014 DENSITY ALT 400FT=
CYHU 150900Z AUTO 18006KT 5SM -RA BR BKN022 OVC029 14/13 A2957 RMK PRESFR PCPN 1.2MM PAST HR SLP014 DENSITY ALT 400FT=
CYHU 150859Z AUTO 18005KT 5SM -RA BR BKN024 OVC032 14/13 A2957 RMK PRESFR PCPN 1.2MM PAST HR SLP014 DENSITY ALT 400FT=
CYHU 150857Z AUTO 18006KT 7SM -RA FEW017 BKN024 OVC032 14/13 A2958 RMK PRESFR PCPN 1.2MM PAST HR SLP015 DENSITY ALT 400FT=
CYHU 150853Z AUTO 18007KT 9SM -RA FEW017 BKN026 OVC032 14/13 A2958 RMK PRESFR PCPN 1.0MM PAST HR SLP017 DENSITY ALT 400FT=
CYHU 150850Z AUTO 18008KT 9SM FEW017 BKN026 OVC032 14/13 A2958 RMK PRESFR PCPN 1.0MM PAST HR SLP017 DENSITY ALT 400FT=
CYHU 150810Z AUTO 17008KT 5SM -RA BR SCT028 OVC045 14/13 A2960 RMK SLP023 DENSITY ALT 300FT=
CYHU 150807Z AUTO 18007KT 7SM -RA FEW030 BKN043 OVC050 14/13 A2960 RMK SLP023 DENSITY ALT 400FT=
CYHU 150800Z AUTO 17009KT 9SM SCT043 BKN050 OVC085 14/13 A2960 RMK PRESRR SLP022 DENSITY ALT 400FT=
CYHU 150700Z AUTO 22004KT 9SM SCT060 BKN073 OVC093 14/12 A2960 RMK PRESFR SLP022 DENSITY ALT 300FT=
CYHU 150600Z AUTO 21008KT 9SM BKN029 BKN043 OVC070 15/13 A2962 RMK SLP030 DENSITY ALT 400FT=
CYHU 150500Z AUTO 20008KT 9SM FEW028 BKN033 OVC040 15/13 A2963 RMK MAX WND 16017KT AT 0403Z SLP032 DENSITY ALT 400FT=